sensor_id;sensor_type;location;lat;lon;timestamp;P1;durP1;ratioP1;P2;durP2;ratioP2
35150;SDS011;55720;51.972;4.624;2023-04-06T00:01:29;23.08;;;11.52;;
35150;SDS011;55720;51.972;4.624;2023-04-06T00:03:54;23.33;;;12.20;;
35150;SDS011;55720;51.972;4.624;2023-04-06T00:06:20;22.83;;;10.43;;
35150;SDS011;55720;51.972;4.624;2023-04-06T00:08:45;19.10;;;11.07;;
35150;SDS011;55720;51.972;4.624;2023-04-06T00:11:11;20.10;;;11.18;;
35150;SDS011;55720;51.972;4.624;2023-04-06T00:13:37;20.55;;;10.95;;
35150;SDS011;55720;51.972;4.624;2023-04-06T00:16:02;19.02;;;10.27;;
35150;SDS011;55720;51.972;4.624;2023-04-06T00:18:30;19.92;;;10.50;;
35150;SDS011;55720;51.972;4.624;2023-04-06T00:20:55;19.65;;;10.10;;
35150;SDS011;55720;51.972;4.624;2023-04-06T00:23:21;19.92;;;10.65;;
35150;SDS011;55720;51.972;4.624;2023-04-06T00:25:46;21.33;;;10.00;;
35150;SDS011;55720;51.972;4.624;2023-04-06T00:28:12;17.30;;;9.77;;
35150;SDS011;55720;51.972;4.624;2023-04-06T00:30:37;16.95;;;10.02;;
35150;SDS011;55720;51.972;4.624;2023-04-06T00:33:03;19.65;;;10.70;;
35150;SDS011;55720;51.972;4.624;2023-04-06T00:35:28;22.23;;;10.77;;
35150;SDS011;55720;51.972;4.624;2023-04-06T00:37:54;22.40;;;10.45;;
35150;SDS011;55720;51.972;4.624;2023-04-06T00:40:19;21.00;;;10.85;;
35150;SDS011;55720;51.972;4.624;2023-04-06T00:42:44;19.13;;;10.88;;
35150;SDS011;55720;51.972;4.624;2023-04-06T00:45:10;20.15;;;11.07;;
35150;SDS011;55720;51.972;4.624;2023-04-06T00:47:35;15.85;;;10.15;;
35150;SDS011;55720;51.972;4.624;2023-04-06T00:50:01;20.10;;;10.27;;
35150;SDS011;55720;51.972;4.624;2023-04-06T00:52:27;15.00;;;9.43;;
35150;SDS011;55720;51.972;4.624;2023-04-06T00:54:52;20.42;;;11.00;;
35150;SDS011;55720;51.972;4.624;2023-04-06T00:57:18;19.40;;;10.48;;
35150;SDS011;55720;51.972;4.624;2023-04-06T00:59:43;16.70;;;9.70;;
35150;SDS011;55720;51.972;4.624;2023-04-06T01:02:10;19.20;;;10.65;;
35150;SDS011;55720;51.972;4.624;2023-04-06T01:04:35;18.67;;;10.18;;
35150;SDS011;55720;51.972;4.624;2023-04-06T01:07:01;20.90;;;10.40;;
35150;SDS011;55720;51.972;4.624;2023-04-06T01:09:27;20.75;;;10.93;;
35150;SDS011;55720;51.972;4.624;2023-04-06T01:11:55;21.55;;;11.25;;
35150;SDS011;55720;51.972;4.624;2023-04-06T01:14:21;19.98;;;10.50;;
35150;SDS011;55720;51.972;4.624;2023-04-06T01:16:46;20.25;;;10.88;;
35150;SDS011;55720;51.972;4.624;2023-04-06T01:19:12;22.27;;;10.77;;
35150;SDS011;55720;51.972;4.624;2023-04-06T01:21:38;20.60;;;10.40;;
35150;SDS011;55720;51.972;4.624;2023-04-06T01:24:05;17.20;;;10.25;;
35150;SDS011;55720;51.972;4.624;2023-04-06T01:26:31;18.30;;;11.13;;
35150;SDS011;55720;51.972;4.624;2023-04-06T01:28:57;19.50;;;10.85;;
35150;SDS011;55720;51.972;4.624;2023-04-06T01:31:22;22.33;;;10.68;;
35150;SDS011;55720;51.972;4.624;2023-04-06T01:33:48;18.02;;;10.52;;
35150;SDS011;55720;51.972;4.624;2023-04-06T01:36:14;20.23;;;11.50;;
35150;SDS011;55720;51.972;4.624;2023-04-06T01:38:40;17.27;;;10.15;;
35150;SDS011;55720;51.972;4.624;2023-04-06T01:41:06;21.58;;;10.13;;
35150;SDS011;55720;51.972;4.624;2023-04-06T01:43:32;17.90;;;10.05;;
35150;SDS011;55720;51.972;4.624;2023-04-06T01:45:58;17.50;;;11.38;;
35150;SDS011;55720;51.972;4.624;2023-04-06T01:48:24;17.88;;;10.65;;
35150;SDS011;55720;51.972;4.624;2023-04-06T01:50:50;17.25;;;10.98;;
35150;SDS011;55720;51.972;4.624;2023-04-06T01:53:16;19.08;;;10.38;;
35150;SDS011;55720;51.972;4.624;2023-04-06T01:55:41;17.73;;;10.52;;
35150;SDS011;55720;51.972;4.624;2023-04-06T01:58:07;20.73;;;10.90;;
35150;SDS011;55720;51.972;4.624;2023-04-06T02:00:32;22.90;;;11.48;;
35150;SDS011;55720;51.972;4.624;2023-04-06T02:02:57;17.73;;;11.13;;
35150;SDS011;55720;51.972;4.624;2023-04-06T02:05:23;16.67;;;10.93;;
35150;SDS011;55720;51.972;4.624;2023-04-06T02:07:48;20.10;;;10.98;;
35150;SDS011;55720;51.972;4.624;2023-04-06T02:10:14;17.45;;;10.90;;
35150;SDS011;55720;51.972;4.624;2023-04-06T02:12:40;20.90;;;11.45;;
35150;SDS011;55720;51.972;4.624;2023-04-06T02:15:05;17.83;;;11.70;;
35150;SDS011;55720;51.972;4.624;2023-04-06T02:17:31;18.25;;;11.18;;
35150;SDS011;55720;51.972;4.624;2023-04-06T02:19:57;19.20;;;11.65;;
35150;SDS011;55720;51.972;4.624;2023-04-06T02:22:22;21.10;;;11.60;;
35150;SDS011;55720;51.972;4.624;2023-04-06T02:24:48;25.02;;;11.32;;
35150;SDS011;55720;51.972;4.624;2023-04-06T02:27:13;24.10;;;11.43;;
35150;SDS011;55720;51.972;4.624;2023-04-06T02:29:39;21.42;;;12.40;;
35150;SDS011;55720;51.972;4.624;2023-04-06T02:32:04;20.63;;;11.07;;
35150;SDS011;55720;51.972;4.624;2023-04-06T02:34:30;18.35;;;11.10;;
35150;SDS011;55720;51.972;4.624;2023-04-06T02:36:56;20.05;;;11.55;;
35150;SDS011;55720;51.972;4.624;2023-04-06T02:39:21;20.75;;;11.13;;
35150;SDS011;55720;51.972;4.624;2023-04-06T02:41:46;18.55;;;10.65;;
35150;SDS011;55720;51.972;4.624;2023-04-06T02:44:12;21.65;;;10.65;;
35150;SDS011;55720;51.972;4.624;2023-04-06T02:46:37;21.70;;;12.02;;
35150;SDS011;55720;51.972;4.624;2023-04-06T02:49:03;21.75;;;11.55;;
35150;SDS011;55720;51.972;4.624;2023-04-06T02:51:28;22.08;;;11.55;;
35150;SDS011;55720;51.972;4.624;2023-04-06T02:53:54;23.33;;;12.40;;
35150;SDS011;55720;51.972;4.624;2023-04-06T02:56:19;24.33;;;11.85;;
35150;SDS011;55720;51.972;4.624;2023-04-06T02:58:46;21.92;;;12.27;;
35150;SDS011;55720;51.972;4.624;2023-04-06T03:01:12;17.95;;;10.98;;
35150;SDS011;55720;51.972;4.624;2023-04-06T03:03:37;25.60;;;11.77;;
35150;SDS011;55720;51.972;4.624;2023-04-06T03:06:03;21.60;;;12.48;;
35150;SDS011;55720;51.972;4.624;2023-04-06T03:08:28;21.38;;;12.00;;
35150;SDS011;55720;51.972;4.624;2023-04-06T03:10:54;23.48;;;12.63;;
35150;SDS011;55720;51.972;4.624;2023-04-06T03:13:20;24.15;;;12.40;;
35150;SDS011;55720;51.972;4.624;2023-04-06T03:15:46;27.70;;;13.43;;
35150;SDS011;55720;51.972;4.624;2023-04-06T03:18:11;23.63;;;12.57;;
35150;SDS011;55720;51.972;4.624;2023-04-06T03:20:36;22.20;;;12.32;;
35150;SDS011;55720;51.972;4.624;2023-04-06T03:23:02;22.25;;;12.20;;
35150;SDS011;55720;51.972;4.624;2023-04-06T03:25:27;23.85;;;12.88;;
35150;SDS011;55720;51.972;4.624;2023-04-06T03:27:53;27.00;;;13.00;;
35150;SDS011;55720;51.972;4.624;2023-04-06T03:30:18;24.83;;;13.77;;
35150;SDS011;55720;51.972;4.624;2023-04-06T03:32:44;25.70;;;13.52;;
35150;SDS011;55720;51.972;4.624;2023-04-06T03:35:10;24.30;;;12.27;;
35150;SDS011;55720;51.972;4.624;2023-04-06T03:37:35;24.60;;;11.88;;
35150;SDS011;55720;51.972;4.624;2023-04-06T03:40:01;20.00;;;12.70;;
35150;SDS011;55720;51.972;4.624;2023-04-06T03:42:27;27.77;;;13.15;;
35150;SDS011;55720;51.972;4.624;2023-04-06T03:44:52;25.90;;;13.00;;
35150;SDS011;55720;51.972;4.624;2023-04-06T03:47:17;23.60;;;13.02;;
35150;SDS011;55720;51.972;4.624;2023-04-06T03:49:43;23.83;;;13.18;;
35150;SDS011;55720;51.972;4.624;2023-04-06T03:52:08;25.00;;;14.13;;
35150;SDS011;55720;51.972;4.624;2023-04-06T03:54:34;18.98;;;12.20;;
35150;SDS011;55720;51.972;4.624;2023-04-06T03:57:00;25.83;;;13.77;;
35150;SDS011;55720;51.972;4.624;2023-04-06T03:59:25;26.75;;;13.27;;
35150;SDS011;55720;51.972;4.624;2023-04-06T04:01:51;26.42;;;12.43;;
35150;SDS011;55720;51.972;4.624;2023-04-06T04:04:16;27.02;;;13.40;;
35150;SDS011;55720;51.972;4.624;2023-04-06T04:06:42;21.77;;;12.93;;
35150;SDS011;55720;51.972;4.624;2023-04-06T05:08:36;33.40;;;14.27;;
35150;SDS011;55720;51.972;4.624;2023-04-06T05:11:01;30.08;;;14.30;;
35150;SDS011;55720;51.972;4.624;2023-04-06T05:13:27;32.08;;;14.77;;
35150;SDS011;55720;51.972;4.624;2023-04-06T05:15:52;34.65;;;15.02;;
35150;SDS011;55720;51.972;4.624;2023-04-06T05:18:18;26.33;;;13.88;;
35150;SDS011;55720;51.972;4.624;2023-04-06T05:23:26;33.13;;;14.85;;
35150;SDS011;55720;51.972;4.624;2023-04-06T05:25:52;32.17;;;14.18;;
35150;SDS011;55720;51.972;4.624;2023-04-06T05:28:17;32.15;;;15.00;;
35150;SDS011;55720;51.972;4.624;2023-04-06T05:30:44;29.92;;;13.80;;
35150;SDS011;55720;51.972;4.624;2023-04-06T05:33:11;31.17;;;14.32;;
35150;SDS011;55720;51.972;4.624;2023-04-06T05:35:37;36.03;;;16.35;;
35150;SDS011;55720;51.972;4.624;2023-04-06T05:38:02;29.35;;;14.70;;
35150;SDS011;55720;51.972;4.624;2023-04-06T05:40:28;36.42;;;15.23;;
35150;SDS011;55720;51.972;4.624;2023-04-06T05:42:54;30.48;;;14.65;;
35150;SDS011;55720;51.972;4.624;2023-04-06T05:45:20;36.15;;;16.20;;
35150;SDS011;55720;51.972;4.624;2023-04-06T05:47:49;35.75;;;15.20;;
35150;SDS011;55720;51.972;4.624;2023-04-06T05:50:15;32.15;;;15.25;;
35150;SDS011;55720;51.972;4.624;2023-04-06T05:52:41;32.60;;;15.43;;
35150;SDS011;55720;51.972;4.624;2023-04-06T05:57:36;33.92;;;14.98;;
35150;SDS011;55720;51.972;4.624;2023-04-06T06:00:02;36.92;;;16.05;;
35150;SDS011;55720;51.972;4.624;2023-04-06T06:02:30;34.35;;;16.20;;
35150;SDS011;55720;51.972;4.624;2023-04-06T06:04:56;30.15;;;15.68;;
35150;SDS011;55720;51.972;4.624;2023-04-06T06:07:22;39.33;;;17.35;;
35150;SDS011;55720;51.972;4.624;2023-04-06T06:09:48;36.10;;;16.52;;
35150;SDS011;55720;51.972;4.624;2023-04-06T06:12:14;34.28;;;16.77;;
35150;SDS011;55720;51.972;4.624;2023-04-06T06:14:40;35.50;;;16.50;;
35150;SDS011;55720;51.972;4.624;2023-04-06T06:17:05;32.85;;;17.08;;
35150;SDS011;55720;51.972;4.624;2023-04-06T06:19:31;35.28;;;17.23;;
35150;SDS011;55720;51.972;4.624;2023-04-06T06:21:56;37.42;;;17.48;;
35150;SDS011;55720;51.972;4.624;2023-04-06T06:24:25;34.95;;;17.40;;
35150;SDS011;55720;51.972;4.624;2023-04-06T06:26:50;38.25;;;16.83;;
35150;SDS011;55720;51.972;4.624;2023-04-06T06:29:16;33.85;;;17.33;;
35150;SDS011;55720;51.972;4.624;2023-04-06T06:31:41;38.85;;;17.58;;
35150;SDS011;55720;51.972;4.624;2023-04-06T06:34:07;35.95;;;16.35;;
35150;SDS011;55720;51.972;4.624;2023-04-06T06:36:33;34.05;;;17.33;;
35150;SDS011;55720;51.972;4.624;2023-04-06T06:39:01;37.55;;;18.13;;
35150;SDS011;55720;51.972;4.624;2023-04-06T06:41:31;35.75;;;17.98;;
35150;SDS011;55720;51.972;4.624;2023-04-06T06:43:57;34.80;;;17.88;;
35150;SDS011;55720;51.972;4.624;2023-04-06T06:46:25;36.20;;;16.52;;
35150;SDS011;55720;51.972;4.624;2023-04-06T06:48:53;39.38;;;17.85;;
35150;SDS011;55720;51.972;4.624;2023-04-06T06:51:18;35.80;;;17.33;;
35150;SDS011;55720;51.972;4.624;2023-04-06T06:53:47;42.00;;;18.50;;
35150;SDS011;55720;51.972;4.624;2023-04-06T06:56:15;38.15;;;17.42;;
35150;SDS011;55720;51.972;4.624;2023-04-06T06:58:40;38.38;;;17.73;;
35150;SDS011;55720;51.972;4.624;2023-04-06T07:01:06;37.25;;;17.63;;
35150;SDS011;55720;51.972;4.624;2023-04-06T07:03:34;34.22;;;17.73;;
35150;SDS011;55720;51.972;4.624;2023-04-06T07:06:02;36.90;;;17.92;;
35150;SDS011;55720;51.972;4.624;2023-04-06T07:08:28;38.85;;;16.63;;
35150;SDS011;55720;51.972;4.624;2023-04-06T07:10:54;37.80;;;18.60;;
35150;SDS011;55720;51.972;4.624;2023-04-06T07:13:21;39.55;;;17.83;;
35150;SDS011;55720;51.972;4.624;2023-04-06T07:15:51;34.25;;;17.55;;
35150;SDS011;55720;51.972;4.624;2023-04-06T07:18:19;37.25;;;17.95;;
35150;SDS011;55720;51.972;4.624;2023-04-06T07:20:45;39.35;;;18.80;;
35150;SDS011;55720;51.972;4.624;2023-04-06T07:23:10;40.65;;;18.20;;
35150;SDS011;55720;51.972;4.624;2023-04-06T07:25:36;40.35;;;18.88;;
35150;SDS011;55720;51.972;4.624;2023-04-06T07:28:02;33.78;;;16.98;;
35150;SDS011;55720;51.972;4.624;2023-04-06T07:30:29;37.50;;;18.75;;
35150;SDS011;55720;51.972;4.624;2023-04-06T07:32:54;36.53;;;18.35;;
35150;SDS011;55720;51.972;4.624;2023-04-06T07:35:24;42.40;;;18.43;;
35150;SDS011;55720;51.972;4.624;2023-04-06T07:37:51;41.35;;;18.77;;
35150;SDS011;55720;51.972;4.624;2023-04-06T07:40:17;37.55;;;19.10;;
35150;SDS011;55720;51.972;4.624;2023-04-06T07:42:43;32.47;;;17.48;;
35150;SDS011;55720;51.972;4.624;2023-04-06T07:45:08;42.47;;;18.42;;
35150;SDS011;55720;51.972;4.624;2023-04-06T07:47:34;34.08;;;18.10;;
35150;SDS011;55720;51.972;4.624;2023-04-06T07:50:00;35.40;;;17.85;;
35150;SDS011;55720;51.972;4.624;2023-04-06T07:52:25;34.20;;;18.60;;
35150;SDS011;55720;51.972;4.624;2023-04-06T07:54:51;37.47;;;19.25;;
35150;SDS011;55720;51.972;4.624;2023-04-06T07:57:16;34.97;;;18.65;;
35150;SDS011;55720;51.972;4.624;2023-04-06T07:59:42;36.92;;;18.60;;
35150;SDS011;55720;51.972;4.624;2023-04-06T08:02:07;35.85;;;19.33;;
35150;SDS011;55720;51.972;4.624;2023-04-06T08:04:33;34.00;;;18.73;;
35150;SDS011;55720;51.972;4.624;2023-04-06T08:06:58;35.20;;;18.55;;
35150;SDS011;55720;51.972;4.624;2023-04-06T08:09:24;38.03;;;18.40;;
35150;SDS011;55720;51.972;4.624;2023-04-06T08:11:49;36.00;;;18.80;;
35150;SDS011;55720;51.972;4.624;2023-04-06T08:14:17;34.97;;;18.63;;
35150;SDS011;55720;51.972;4.624;2023-04-06T08:16:43;38.85;;;19.85;;
35150;SDS011;55720;51.972;4.624;2023-04-06T08:19:08;36.53;;;18.92;;
35150;SDS011;55720;51.972;4.624;2023-04-06T08:21:35;38.67;;;19.40;;
35150;SDS011;55720;51.972;4.624;2023-04-06T08:24:01;40.33;;;19.67;;
35150;SDS011;55720;51.972;4.624;2023-04-06T08:26:28;41.47;;;20.65;;
35150;SDS011;55720;51.972;4.624;2023-04-06T08:28:56;36.15;;;19.85;;
35150;SDS011;55720;51.972;4.624;2023-04-06T08:31:22;38.70;;;20.08;;
35150;SDS011;55720;51.972;4.624;2023-04-06T08:33:47;38.47;;;20.58;;
35150;SDS011;55720;51.972;4.624;2023-04-06T08:36:13;44.35;;;21.45;;
35150;SDS011;55720;51.972;4.624;2023-04-06T08:38:42;43.15;;;20.30;;
35150;SDS011;55720;51.972;4.624;2023-04-06T08:41:10;45.45;;;21.25;;
35150;SDS011;55720;51.972;4.624;2023-04-06T08:43:44;40.33;;;19.90;;
35150;SDS011;55720;51.972;4.624;2023-04-06T08:46:12;37.58;;;18.05;;
35150;SDS011;55720;51.972;4.624;2023-04-06T08:48:39;38.70;;;17.52;;
35150;SDS011;55720;51.972;4.624;2023-04-06T08:51:06;35.03;;;16.90;;
35150;SDS011;55720;51.972;4.624;2023-04-06T08:53:33;40.47;;;17.85;;
35150;SDS011;55720;51.972;4.624;2023-04-06T08:55:59;35.92;;;15.38;;
35150;SDS011;55720;51.972;4.624;2023-04-06T08:58:26;27.70;;;13.63;;
35150;SDS011;55720;51.972;4.624;2023-04-06T09:00:54;26.30;;;14.32;;
35150;SDS011;55720;51.972;4.624;2023-04-06T09:03:20;30.25;;;14.27;;
35150;SDS011;55720;51.972;4.624;2023-04-06T09:05:46;27.33;;;13.20;;
35150;SDS011;55720;51.972;4.624;2023-04-06T09:08:13;28.27;;;13.80;;
35150;SDS011;55720;51.972;4.624;2023-04-06T09:10:41;26.65;;;12.88;;
35150;SDS011;55720;51.972;4.624;2023-04-06T09:13:07;26.33;;;12.55;;
35150;SDS011;55720;51.972;4.624;2023-04-06T09:15:33;25.85;;;11.68;;
35150;SDS011;55720;51.972;4.624;2023-04-06T09:18:00;21.80;;;11.65;;
35150;SDS011;55720;51.972;4.624;2023-04-06T09:20:26;22.65;;;11.98;;
35150;SDS011;55720;51.972;4.624;2023-04-06T09:22:53;20.55;;;11.38;;
35150;SDS011;55720;51.972;4.624;2023-04-06T09:25:23;23.65;;;11.70;;
35150;SDS011;55720;51.972;4.624;2023-04-06T09:28:02;20.20;;;9.95;;
35150;SDS011;55720;51.972;4.624;2023-04-06T09:30:32;13.10;;;8.57;;
35150;SDS011;55720;51.972;4.624;2023-04-06T09:32:57;13.65;;;8.25;;
35150;SDS011;55720;51.972;4.624;2023-04-06T09:35:24;14.48;;;8.63;;
35150;SDS011;55720;51.972;4.624;2023-04-06T09:37:52;18.20;;;9.40;;
35150;SDS011;55720;51.972;4.624;2023-04-06T09:40:18;15.90;;;9.02;;
35150;SDS011;55720;51.972;4.624;2023-04-06T09:42:47;12.93;;;8.18;;
35150;SDS011;55720;51.972;4.624;2023-04-06T09:45:15;11.10;;;7.85;;
35150;SDS011;55720;51.972;4.624;2023-04-06T09:47:42;13.18;;;7.90;;
35150;SDS011;55720;51.972;4.624;2023-04-06T09:50:10;11.57;;;7.90;;
35150;SDS011;55720;51.972;4.624;2023-04-06T09:52:42;9.25;;;7.57;;
35150;SDS011;55720;51.972;4.624;2023-04-06T09:55:17;14.98;;;8.23;;
35150;SDS011;55720;51.972;4.624;2023-04-06T09:57:50;13.43;;;8.00;;
35150;SDS011;55720;51.972;4.624;2023-04-06T10:00:22;14.32;;;7.97;;
35150;SDS011;55720;51.972;4.624;2023-04-06T10:08:07;10.10;;;7.88;;
35150;SDS011;55720;51.972;4.624;2023-04-06T10:10:35;15.10;;;8.50;;
35150;SDS011;55720;51.972;4.624;2023-04-06T10:16:16;14.27;;;8.52;;
35150;SDS011;55720;51.972;4.624;2023-04-06T10:19:05;15.63;;;10.57;;
35150;SDS011;55720;51.972;4.624;2023-04-06T10:21:35;18.50;;;10.15;;
35150;SDS011;55720;51.972;4.624;2023-04-06T10:24:06;15.93;;;10.00;;
35150;SDS011;55720;51.972;4.624;2023-04-06T10:26:34;19.33;;;10.60;;
35150;SDS011;55720;51.972;4.624;2023-04-06T10:29:02;17.70;;;10.55;;
35150;SDS011;55720;51.972;4.624;2023-04-06T10:31:28;19.00;;;11.35;;
35150;SDS011;55720;51.972;4.624;2023-04-06T10:34:00;18.95;;;10.40;;
35150;SDS011;55720;51.972;4.624;2023-04-06T10:36:28;19.30;;;10.65;;
35150;SDS011;55720;51.972;4.624;2023-04-06T10:39:01;17.00;;;10.50;;
35150;SDS011;55720;51.972;4.624;2023-04-06T10:41:32;17.02;;;10.50;;
35150;SDS011;55720;51.972;4.624;2023-04-06T10:43:59;17.25;;;10.57;;
35150;SDS011;55720;51.972;4.624;2023-04-06T10:46:27;17.33;;;10.13;;
35150;SDS011;55720;51.972;4.624;2023-04-06T10:48:54;16.52;;;10.57;;
35150;SDS011;55720;51.972;4.624;2023-04-06T10:51:24;15.60;;;9.85;;
35150;SDS011;55720;51.972;4.624;2023-04-06T10:53:55;14.25;;;10.20;;
35150;SDS011;55720;51.972;4.624;2023-04-06T10:56:23;19.15;;;11.18;;
35150;SDS011;55720;51.972;4.624;2023-04-06T10:58:53;16.15;;;10.43;;
35150;SDS011;55720;51.972;4.624;2023-04-06T11:01:23;13.82;;;10.30;;
35150;SDS011;55720;51.972;4.624;2023-04-06T11:03:55;15.70;;;10.77;;
35150;SDS011;55720;51.972;4.624;2023-04-06T11:06:27;15.15;;;11.02;;
35150;SDS011;55720;51.972;4.624;2023-04-06T11:08:56;14.88;;;10.68;;
35150;SDS011;55720;51.972;4.624;2023-04-06T11:11:23;16.70;;;10.88;;
35150;SDS011;55720;51.972;4.624;2023-04-06T11:16:23;16.73;;;10.88;;
35150;SDS011;55720;51.972;4.624;2023-04-06T11:18:57;16.55;;;10.65;;
35150;SDS011;55720;51.972;4.624;2023-04-06T11:21:34;22.55;;;11.18;;
35150;SDS011;55720;51.972;4.624;2023-04-06T11:24:11;16.33;;;10.82;;
35150;SDS011;55720;51.972;4.624;2023-04-06T11:26:45;21.88;;;11.68;;
35150;SDS011;55720;51.972;4.624;2023-04-06T11:29:13;18.88;;;11.25;;
35150;SDS011;55720;51.972;4.624;2023-04-06T11:31:41;15.60;;;10.27;;
35150;SDS011;55720;51.972;4.624;2023-04-06T11:34:15;19.38;;;11.57;;
35150;SDS011;55720;51.972;4.624;2023-04-06T11:36:42;20.45;;;11.50;;
35150;SDS011;55720;51.972;4.624;2023-04-06T11:39:09;19.20;;;12.00;;
35150;SDS011;55720;51.972;4.624;2023-04-06T11:41:36;17.60;;;11.80;;
35150;SDS011;55720;51.972;4.624;2023-04-06T11:44:01;18.77;;;11.15;;
35150;SDS011;55720;51.972;4.624;2023-04-06T11:46:32;16.80;;;10.93;;
35150;SDS011;55720;51.972;4.624;2023-04-06T11:48:58;19.02;;;11.15;;
35150;SDS011;55720;51.972;4.624;2023-04-06T11:51:25;20.10;;;11.85;;
35150;SDS011;55720;51.972;4.624;2023-04-06T11:53:52;17.75;;;11.57;;
35150;SDS011;55720;51.972;4.624;2023-04-06T11:56:28;17.73;;;11.90;;
35150;SDS011;55720;51.972;4.624;2023-04-06T11:58:55;16.83;;;10.30;;
35150;SDS011;55720;51.972;4.624;2023-04-06T12:01:22;17.83;;;11.25;;
35150;SDS011;55720;51.972;4.624;2023-04-06T12:03:49;18.13;;;11.25;;
35150;SDS011;55720;51.972;4.624;2023-04-06T12:06:15;17.05;;;10.32;;
35150;SDS011;55720;51.972;4.624;2023-04-06T12:08:40;17.77;;;11.20;;
35150;SDS011;55720;51.972;4.624;2023-04-06T12:11:06;18.73;;;11.02;;
35150;SDS011;55720;51.972;4.624;2023-04-06T12:13:31;19.05;;;10.52;;
35150;SDS011;55720;51.972;4.624;2023-04-06T12:15:57;16.08;;;10.40;;
35150;SDS011;55720;51.972;4.624;2023-04-06T12:18:22;18.65;;;10.70;;
35150;SDS011;55720;51.972;4.624;2023-04-06T12:20:48;18.85;;;10.77;;
35150;SDS011;55720;51.972;4.624;2023-04-06T12:23:13;19.27;;;11.05;;
35150;SDS011;55720;51.972;4.624;2023-04-06T12:25:39;18.10;;;10.45;;
35150;SDS011;55720;51.972;4.624;2023-04-06T12:28:05;19.27;;;11.25;;
35150;SDS011;55720;51.972;4.624;2023-04-06T12:30:31;16.33;;;10.07;;
35150;SDS011;55720;51.972;4.624;2023-04-06T12:32:57;17.90;;;11.30;;
35150;SDS011;55720;51.972;4.624;2023-04-06T12:35:22;15.15;;;9.63;;
35150;SDS011;55720;51.972;4.624;2023-04-06T12:37:48;17.08;;;10.40;;
35150;SDS011;55720;51.972;4.624;2023-04-06T12:40:14;17.52;;;11.50;;
35150;SDS011;55720;51.972;4.624;2023-04-06T12:42:40;15.43;;;9.82;;
35150;SDS011;55720;51.972;4.624;2023-04-06T12:45:06;20.13;;;10.85;;
35150;SDS011;55720;51.972;4.624;2023-04-06T12:47:33;15.45;;;10.18;;
35150;SDS011;55720;51.972;4.624;2023-04-06T12:49:58;17.73;;;10.80;;
35150;SDS011;55720;51.972;4.624;2023-04-06T12:52:24;18.35;;;11.52;;
35150;SDS011;55720;51.972;4.624;2023-04-06T12:54:50;16.45;;;11.32;;
35150;SDS011;55720;51.972;4.624;2023-04-06T12:57:16;19.10;;;11.77;;
35150;SDS011;55720;51.972;4.624;2023-04-06T12:59:45;19.55;;;11.15;;
35150;SDS011;55720;51.972;4.624;2023-04-06T13:02:11;19.20;;;11.55;;
35150;SDS011;55720;51.972;4.624;2023-04-06T13:04:36;19.80;;;11.48;;
35150;SDS011;55720;51.972;4.624;2023-04-06T13:07:02;21.55;;;12.38;;
35150;SDS011;55720;51.972;4.624;2023-04-06T13:09:27;16.40;;;11.00;;
35150;SDS011;55720;51.972;4.624;2023-04-06T13:11:53;17.80;;;11.23;;
35150;SDS011;55720;51.972;4.624;2023-04-06T13:14:19;20.40;;;11.48;;
35150;SDS011;55720;51.972;4.624;2023-04-06T13:16:45;21.50;;;11.52;;
35150;SDS011;55720;51.972;4.624;2023-04-06T13:19:11;20.52;;;12.35;;
35150;SDS011;55720;51.972;4.624;2023-04-06T13:21:37;17.45;;;12.43;;
35150;SDS011;55720;51.972;4.624;2023-04-06T13:24:02;24.10;;;11.82;;
35150;SDS011;55720;51.972;4.624;2023-04-06T13:26:29;17.85;;;11.85;;
35150;SDS011;55720;51.972;4.624;2023-04-06T13:28:55;22.95;;;11.93;;
35150;SDS011;55720;51.972;4.624;2023-04-06T13:31:21;15.50;;;10.88;;
35150;SDS011;55720;51.972;4.624;2023-04-06T13:33:47;17.05;;;10.57;;
35150;SDS011;55720;51.972;4.624;2023-04-06T13:36:13;16.95;;;11.02;;
35150;SDS011;55720;51.972;4.624;2023-04-06T13:38:38;19.48;;;12.38;;
35150;SDS011;55720;51.972;4.624;2023-04-06T13:41:04;20.38;;;11.57;;
35150;SDS011;55720;51.972;4.624;2023-04-06T13:43:30;17.52;;;11.43;;
35150;SDS011;55720;51.972;4.624;2023-04-06T13:45:56;18.10;;;11.88;;
35150;SDS011;55720;51.972;4.624;2023-04-06T13:48:24;20.23;;;12.10;;
35150;SDS011;55720;51.972;4.624;2023-04-06T13:50:51;19.30;;;13.48;;
35150;SDS011;55720;51.972;4.624;2023-04-06T13:53:17;21.48;;;12.20;;
35150;SDS011;55720;51.972;4.624;2023-04-06T13:55:43;20.58;;;12.27;;
35150;SDS011;55720;51.972;4.624;2023-04-06T13:58:09;19.63;;;12.02;;
35150;SDS011;55720;51.972;4.624;2023-04-06T14:00:34;20.05;;;11.60;;
35150;SDS011;55720;51.972;4.624;2023-04-06T14:03:00;19.05;;;12.40;;
35150;SDS011;55720;51.972;4.624;2023-04-06T14:05:26;19.08;;;12.05;;
35150;SDS011;55720;51.972;4.624;2023-04-06T14:07:58;19.23;;;12.55;;
35150;SDS011;55720;51.972;4.624;2023-04-06T14:10:23;19.13;;;11.73;;
35150;SDS011;55720;51.972;4.624;2023-04-06T14:12:52;19.95;;;12.05;;
35150;SDS011;55720;51.972;4.624;2023-04-06T14:15:17;20.15;;;12.50;;
35150;SDS011;55720;51.972;4.624;2023-04-06T14:17:43;20.50;;;12.10;;
35150;SDS011;55720;51.972;4.624;2023-04-06T14:20:09;17.48;;;11.23;;
35150;SDS011;55720;51.972;4.624;2023-04-06T14:22:39;17.97;;;12.20;;
35150;SDS011;55720;51.972;4.624;2023-04-06T14:25:06;19.15;;;12.02;;
35150;SDS011;55720;51.972;4.624;2023-04-06T14:27:32;17.92;;;11.23;;
35150;SDS011;55720;51.972;4.624;2023-04-06T14:29:57;16.88;;;11.93;;
35150;SDS011;55720;51.972;4.624;2023-04-06T14:32:22;18.63;;;12.50;;
35150;SDS011;55720;51.972;4.624;2023-04-06T14:34:49;15.15;;;11.55;;
35150;SDS011;55720;51.972;4.624;2023-04-06T14:37:15;15.95;;;11.98;;
35150;SDS011;55720;51.972;4.624;2023-04-06T14:39:41;16.15;;;11.00;;
35150;SDS011;55720;51.972;4.624;2023-04-06T14:42:06;16.52;;;11.27;;
35150;SDS011;55720;51.972;4.624;2023-04-06T14:44:35;16.05;;;11.40;;
35150;SDS011;55720;51.972;4.624;2023-04-06T14:47:02;18.88;;;11.93;;
35150;SDS011;55720;51.972;4.624;2023-04-06T14:49:29;16.35;;;12.05;;
35150;SDS011;55720;51.972;4.624;2023-04-06T14:51:54;17.92;;;12.02;;
35150;SDS011;55720;51.972;4.624;2023-04-06T14:54:20;14.02;;;11.38;;
35150;SDS011;55720;51.972;4.624;2023-04-06T14:56:49;17.02;;;11.52;;
35150;SDS011;55720;51.972;4.624;2023-04-06T14:59:14;17.42;;;12.07;;
35150;SDS011;55720;51.972;4.624;2023-04-06T15:01:40;15.43;;;11.65;;
35150;SDS011;55720;51.972;4.624;2023-04-06T15:04:06;20.20;;;13.60;;
35150;SDS011;55720;51.972;4.624;2023-04-06T15:06:32;19.33;;;12.60;;
35150;SDS011;55720;51.972;4.624;2023-04-06T15:08:58;20.35;;;13.05;;
35150;SDS011;55720;51.972;4.624;2023-04-06T15:11:24;20.27;;;13.43;;
35150;SDS011;55720;51.972;4.624;2023-04-06T15:13:49;20.73;;;13.50;;
35150;SDS011;55720;51.972;4.624;2023-04-06T15:16:15;21.50;;;14.38;;
35150;SDS011;55720;51.972;4.624;2023-04-06T15:21:24;22.55;;;14.15;;
35150;SDS011;55720;51.972;4.624;2023-04-06T15:23:50;21.30;;;14.95;;
35150;SDS011;55720;51.972;4.624;2023-04-06T15:26:16;19.95;;;14.50;;
35150;SDS011;55720;51.972;4.624;2023-04-06T15:28:41;22.70;;;14.43;;
35150;SDS011;55720;51.972;4.624;2023-04-06T15:33:37;20.98;;;14.80;;
35150;SDS011;55720;51.972;4.624;2023-04-06T15:38:51;20.38;;;14.23;;
35150;SDS011;55720;51.972;4.624;2023-04-06T15:41:17;21.20;;;15.45;;
35150;SDS011;55720;51.972;4.624;2023-04-06T15:43:43;19.52;;;14.88;;